Time;durP1;ratioP1;P1;durP2;ratioP2;P2;SDS_P1;SDS_P2;PMS_P1;PMS_P2;Temp;Humidity;BMP_temperature;BMP_pressure;BME280_temperature;BME280_humidity;BME280_pressure;Samples;Min_cycle;Max_cycle;Signal;HPM_P1;HPM_P2
2023/12/16 00:01:09;;;;;;;1.55;1.45;;;;;;;;;;5027888;28;20667;-79
2023/12/16 00:03:36;;;;;;;2.88;1.15;;;;;;;;;;5022833;28;20115;-80
2023/12/16 00:06:04;;;;;;;6.97;3.67;;;;;;;;;;5020597;28;20053;-80
2023/12/16 00:08:31;;;;;;;1.25;1.25;;;;;;;;;;5027588;28;20175;-79
2023/12/16 00:10:59;;;;;;;2.65;2.25;;;;;;;;;;5028750;28;20041;-80
2023/12/16 00:13:27;;;;;;;0.65;0.65;;;;;;;;;;5000550;28;20495;-80
2023/12/16 00:15:54;;;;;;;2.60;2.45;;;;;;;;;;5022017;28;20458;-83
2023/12/16 00:18:22;;;;;;;2.28;2.17;;;;;;;;;;5001901;28;20057;-80
2023/12/16 00:20:50;;;;;;;1.05;1.05;;;;;;;;;;5017552;28;20045;-84
2023/12/16 00:23:20;;;;;;;0.30;0.30;;;;;;;;;;5020399;28;20049;-80
2023/12/16 00:25:47;;;;;;;0.40;0.40;;;;;;;;;;5023100;28;20053;-80
2023/12/16 00:28:15;;;;;;;0.10;0.10;;;;;;;;;;5026289;28;20040;-80
2023/12/16 00:30:42;;;;;;;0.85;0.85;;;;;;;;;;5028008;28;20423;-79
2023/12/16 00:33:10;;;;;;;6.22;3.42;;;;;;;;;;5027297;28;20183;-79
2023/12/16 00:35:37;;;;;;;0.10;0.10;;;;;;;;;;5027717;28;20357;-78
2023/12/16 00:38:05;;;;;;;2.83;1.20;;;;;;;;;;5017355;28;20080;-82
2023/12/16 00:40:33;;;;;;;2.03;1.85;;;;;;;;;;5015107;28;20119;-78
2023/12/16 00:43:03;;;;;;;0.98;0.95;;;;;;;;;;5027669;28;20168;-79
2023/12/16 00:45:31;;;;;;;1.50;1.40;;;;;;;;;;5028809;28;20106;-84
2023/12/16 00:47:58;;;;;;;2.63;2.15;;;;;;;;;;5032258;28;20038;-84
2023/12/16 00:50:26;;;;;;;10.05;6.93;;;;;;;;;;5035750;28;20053;-79
2023/12/16 00:52:53;;;;;;;0.25;0.25;;;;;;;;;;5009869;28;20046;-80
2023/12/16 00:55:21;;;;;;;0.17;0.17;;;;;;;;;;5030183;28;20136;-79
2023/12/16 00:57:48;;;;;;;0.10;0.10;;;;;;;;;;5024449;28;20535;-79
2023/12/16 01:00:16;;;;;;;0.35;0.35;;;;;;;;;;5029056;28;20526;-79
2023/12/16 01:02:44;;;;;;;0.50;0.50;;;;;;;;;;5032555;28;20076;-78
2023/12/16 01:05:11;;;;;;;0.80;0.63;;;;;;;;;;5030856;28;20465;-78
2023/12/16 01:07:39;;;;;;;2.80;2.42;;;;;;;;;;5029983;28;20044;-78
2023/12/16 01:10:07;;;;;;;2.90;1.42;;;;;;;;;;5024030;28;20479;-80
2023/12/16 01:12:35;;;;;;;13.45;9.18;;;;;;;;;;5007821;28;20499;-80
2023/12/16 01:15:02;;;;;;;0.30;0.30;;;;;;;;;;5022362;28;20045;-82
2023/12/16 01:17:30;;;;;;;0.20;0.20;;;;;;;;;;5025539;28;20062;-84
2023/12/16 01:19:57;;;;;;;0.30;0.30;;;;;;;;;;5028970;28;20487;-79
2023/12/16 01:22:25;;;;;;;0.10;0.10;;;;;;;;;;5027181;28;20054;-79
2023/12/16 01:24:55;;;;;;;1.52;1.40;;;;;;;;;;5028004;28;20065;-80
2023/12/16 01:27:22;;;;;;;0.10;0.10;;;;;;;;;;5024511;28;20072;-78
2023/12/16 01:29:51;;;;;;;0.30;0.30;;;;;;;;;;5020751;28;20136;-82
2023/12/16 01:32:19;;;;;;;0.10;0.10;;;;;;;;;;5027224;28;20124;-78
2023/12/16 01:34:47;;;;;;;2.28;2.08;;;;;;;;;;5024708;28;20050;-79
2023/12/16 01:37:14;;;;;;;1.35;1.30;;;;;;;;;;5006674;28;20049;-80
2023/12/16 01:39:42;;;;;;;1.48;1.05;;;;;;;;;;5025799;28;20494;-79
2023/12/16 01:42:09;;;;;;;1.55;1.45;;;;;;;;;;5029306;28;20061;-80
2023/12/16 01:44:37;;;;;;;0.10;0.10;;;;;;;;;;5021521;28;20065;-78
2023/12/16 01:47:05;;;;;;;0.85;0.85;;;;;;;;;;5005145;28;20092;-79
2023/12/16 01:49:37;;;;;;;2.35;1.95;;;;;;;;;;5030980;28;20056;-79
2023/12/16 01:52:07;;;;;;;1.85;1.75;;;;;;;;;;5009224;28;20042;-77
2023/12/16 01:54:35;;;;;;;0.10;0.10;;;;;;;;;;5026821;28;20057;-80
2023/12/16 01:57:04;;;;;;;0.63;0.63;;;;;;;;;;5022076;28;20053;-79
2023/12/16 01:59:32;;;;;;;0.10;0.10;;;;;;;;;;5028965;28;20053;-78
2023/12/16 02:02:00;;;;;;;1.13;0.98;;;;;;;;;;5025890;28;20041;-78
2023/12/16 02:04:28;;;;;;;5.70;3.85;;;;;;;;;;5026882;28;20045;-78
2023/12/16 02:06:56;;;;;;;2.00;1.90;;;;;;;;;;5024383;28;20096;-80
2023/12/16 02:09:24;;;;;;;0.77;0.75;;;;;;;;;;5024376;28;20049;-78
2023/12/16 02:11:52;;;;;;;0.80;0.80;;;;;;;;;;5029296;28;20037;-79
2023/12/16 02:14:20;;;;;;;0.93;0.88;;;;;;;;;;5025969;28;20069;-78
2023/12/16 02:16:47;;;;;;;0.55;0.55;;;;;;;;;;5030161;28;20049;-82
2023/12/16 02:19:23;;;;;;;0.10;0.10;;;;;;;;;;5026373;28;20042;-81
2023/12/16 02:21:51;;;;;;;0.63;0.63;;;;;;;;;;5005715;28;20111;-80
2023/12/16 02:24:19;;;;;;;0.10;0.10;;;;;;;;;;5029853;28;20431;-78
2023/12/16 02:26:47;;;;;;;0.65;0.65;;;;;;;;;;5004730;28;20060;-80
2023/12/16 02:29:15;;;;;;;7.28;4.43;;;;;;;;;;5006342;28;20041;-81
2023/12/16 02:31:45;;;;;;;0.20;0.20;;;;;;;;;;5024571;28;20550;-80
2023/12/16 02:34:12;;;;;;;0.00;0.00;;;;;;;;;;5026507;28;20041;-80
2023/12/16 02:36:40;;;;;;;0.10;0.10;;;;;;;;;;5024192;28;20046;-79
2023/12/16 02:39:09;;;;;;;3.03;0.68;;;;;;;;;;5022883;28;20132;-80
2023/12/16 02:41:36;;;;;;;0.77;0.77;;;;;;;;;;5022331;28;20081;-79
2023/12/16 02:44:03;;;;;;;0.45;0.45;;;;;;;;;;5023016;28;20050;-80
2023/12/16 02:46:31;;;;;;;1.80;1.65;;;;;;;;;;5019301;28;20147;-80
2023/12/16 02:48:58;;;;;;;0.10;0.10;;;;;;;;;;5024058;28;20053;-78
2023/12/16 02:51:26;;;;;;;2.95;2.65;;;;;;;;;;5021748;28;20042;-80
2023/12/16 02:53:53;;;;;;;0.73;0.73;;;;;;;;;;5025091;28;20468;-79
2023/12/16 02:56:22;;;;;;;2.75;0.90;;;;;;;;;;5027877;28;20056;-80
2023/12/16 02:58:50;;;;;;;1.10;1.05;;;;;;;;;;5025787;28;20056;-80
2023/12/16 03:01:18;;;;;;;0.88;0.88;;;;;;;;;;5026644;28;20103;-84
2023/12/16 03:03:49;;;;;;;1.48;1.35;;;;;;;;;;5019238;28;20049;-80
2023/12/16 03:06:16;;;;;;;0.38;0.38;;;;;;;;;;5020816;28;20037;-85
2023/12/16 03:08:45;;;;;;;0.65;0.65;;;;;;;;;;5022811;28;20050;-79
2023/12/16 03:11:13;;;;;;;2.72;2.53;;;;;;;;;;5026697;28;20077;-79
2023/12/16 03:13:40;;;;;;;0.32;0.32;;;;;;;;;;5031518;28;20120;-80
2023/12/16 03:16:08;;;;;;;4.03;2.85;;;;;;;;;;5010376;28;20049;-79
2023/12/16 03:18:35;;;;;;;0.10;0.10;;;;;;;;;;5030628;28;20067;-80
2023/12/16 03:21:07;;;;;;;0.10;0.10;;;;;;;;;;5031771;28;20124;-79
2023/12/16 03:23:35;;;;;;;0.70;0.70;;;;;;;;;;5029786;28;20412;-79
2023/12/16 03:26:03;;;;;;;0.35;0.35;;;;;;;;;;5028239;28;20045;-78
2023/12/16 03:28:30;;;;;;;0.10;0.10;;;;;;;;;;5029479;28;20046;-80
2023/12/16 03:30:58;;;;;;;0.10;0.10;;;;;;;;;;5023503;28;20136;-79
2023/12/16 03:33:26;;;;;;;0.25;0.25;;;;;;;;;;5024543;28;20049;-80
2023/12/16 03:35:54;;;;;;;0.40;0.15;;;;;;;;;;5026357;28;20073;-80
2023/12/16 03:38:21;;;;;;;0.63;0.63;;;;;;;;;;5020920;28;20040;-80
2023/12/16 03:40:48;;;;;;;8.60;5.25;;;;;;;;;;5018830;28;20049;-80
2023/12/16 03:43:17;;;;;;;0.10;0.10;;;;;;;;;;5016828;28;20066;-84
2023/12/16 03:45:45;;;;;;;0.93;0.70;;;;;;;;;;5015411;28;20042;-83
2023/12/16 03:48:13;;;;;;;0.43;0.43;;;;;;;;;;5016818;28;20070;-82
2023/12/16 03:50:40;;;;;;;0.75;0.75;;;;;;;;;;5012969;28;20050;-79
2023/12/16 03:53:08;;;;;;;0.00;0.00;;;;;;;;;;5015377;28;20116;-79
2023/12/16 03:55:37;;;;;;;0.20;0.20;;;;;;;;;;5022297;28;20111;-79
2023/12/16 03:58:05;;;;;;;0.50;0.50;;;;;;;;;;5035936;22;20278;-80
2023/12/16 04:00:33;;;;;;;4.25;2.55;;;;;;;;;;5004042;28;20446;-80
2023/12/16 04:03:01;;;;;;;0.10;0.10;;;;;;;;;;4999899;28;20041;-80
2023/12/16 04:05:29;;;;;;;0.25;0.25;;;;;;;;;;4992148;28;20144;-80
2023/12/16 04:07:56;;;;;;;0.77;0.77;;;;;;;;;;5004508;28;20453;-80
2023/12/16 04:10:24;;;;;;;1.42;1.42;;;;;;;;;;4994639;28;20133;-80
2023/12/16 04:12:55;;;;;;;3.00;1.67;;;;;;;;;;4999026;28;20212;-80
2023/12/16 04:15:22;;;;;;;0.45;0.45;;;;;;;;;;5003062;28;20042;-80
2023/12/16 04:17:50;;;;;;;0.10;0.10;;;;;;;;;;5002033;28;20051;-80
2023/12/16 04:20:17;;;;;;;3.30;1.23;;;;;;;;;;5003915;28;20096;-80
2023/12/16 04:22:45;;;;;;;1.45;1.20;;;;;;;;;;5002858;28;20050;-80
2023/12/16 04:25:12;;;;;;;3.13;2.72;;;;;;;;;;5007325;28;20053;-80
2023/12/16 04:27:51;;;;;;;0.20;0.20;;;;;;;;;;5000156;28;20038;-80
2023/12/16 04:30:24;;;;;;;9.32;5.57;;;;;;;;;;5006038;28;20081;-80
2023/12/16 04:32:52;;;;;;;12.00;6.82;;;;;;;;;;5005385;28;20038;-80
2023/12/16 04:35:20;;;;;;;0.15;0.15;;;;;;;;;;5005633;28;20049;-80
2023/12/16 04:37:48;;;;;;;6.72;4.10;;;;;;;;;;4998207;28;20125;-80
2023/12/16 04:40:15;;;;;;;1.83;1.73;;;;;;;;;;4982341;28;20447;-81
2023/12/16 04:42:43;;;;;;;0.60;0.57;;;;;;;;;;4979332;28;20057;-80
2023/12/16 04:45:10;;;;;;;0.73;0.73;;;;;;;;;;5006318;28;20042;-80
2023/12/16 04:47:38;;;;;;;0.10;0.10;;;;;;;;;;5008295;28;20049;-80
2023/12/16 04:50:06;;;;;;;0.10;0.10;;;;;;;;;;5006664;28;20046;-80
2023/12/16 04:52:34;;;;;;;0.10;0.10;;;;;;;;;;5008379;28;20069;-80
2023/12/16 04:55:01;;;;;;;1.45;1.35;;;;;;;;;;5006935;28;20046;-80
2023/12/16 04:57:29;;;;;;;0.20;0.20;;;;;;;;;;5008453;28;20054;-80
2023/12/16 04:59:56;;;;;;;1.55;1.38;;;;;;;;;;5008185;28;20046;-80
2023/12/16 05:02:24;;;;;;;0.70;0.70;;;;;;;;;;4971643;28;21535;-80
2023/12/16 05:04:51;;;;;;;2.05;1.85;;;;;;;;;;5003210;28;20164;-80
2023/12/16 05:07:19;;;;;;;0.20;0.20;;;;;;;;;;5003761;28;20049;-80
2023/12/16 05:09:47;;;;;;;0.52;0.52;;;;;;;;;;5008566;28;20049;-80
2023/12/16 05:12:14;;;;;;;0.45;0.45;;;;;;;;;;5007292;28;20052;-81
2023/12/16 05:14:41;;;;;;;0.00;0.00;;;;;;;;;;5004985;28;20042;-80
2023/12/16 05:17:09;;;;;;;2.47;2.17;;;;;;;;;;5005295;28;20058;-80
2023/12/16 05:19:36;;;;;;;1.67;0.82;;;;;;;;;;4981408;28;20255;-80
2023/12/16 05:22:04;;;;;;;0.68;0.68;;;;;;;;;;5004537;28;20066;-80
2023/12/16 05:24:31;;;;;;;2.60;2.22;;;;;;;;;;5010802;28;20085;-80
2023/12/16 05:26:59;;;;;;;4.03;3.05;;;;;;;;;;5004488;28;20427;-80
2023/12/16 05:29:26;;;;;;;2.50;2.33;;;;;;;;;;5006295;28;20130;-80
2023/12/16 05:31:54;;;;;;;1.85;1.75;;;;;;;;;;5000689;28;20050;-80
2023/12/16 05:34:21;;;;;;;4.65;3.28;;;;;;;;;;4999633;28;20119;-80
2023/12/16 05:36:50;;;;;;;0.45;0.45;;;;;;;;;;5007422;28;20069;-80
2023/12/16 05:39:18;;;;;;;1.92;1.77;;;;;;;;;;5004578;28;20046;-80
2023/12/16 05:41:45;;;;;;;4.05;1.10;;;;;;;;;;4994073;28;20327;-80
2023/12/16 05:44:13;;;;;;;6.18;3.45;;;;;;;;;;5004081;28;20081;-80
2023/12/16 05:46:40;;;;;;;4.65;2.65;;;;;;;;;;5006327;28;20045;-80
2023/12/16 05:49:07;;;;;;;1.27;1.17;;;;;;;;;;5005548;28;20057;-81
2023/12/16 05:51:39;;;;;;;5.45;2.97;;;;;;;;;;4989613;28;20038;-80
2023/12/16 05:54:10;;;;;;;10.18;4.60;;;;;;;;;;5001226;28;20581;-80
2023/12/16 05:56:37;;;;;;;1.00;1.00;;;;;;;;;;4989579;28;20443;-80
2023/12/16 05:59:05;;;;;;;0.17;0.17;;;;;;;;;;4997602;28;20050;-80
2023/12/16 06:01:32;;;;;;;1.25;1.25;;;;;;;;;;5000980;28;20046;-81
2023/12/16 06:04:00;;;;;;;0.10;0.10;;;;;;;;;;5004097;28;20507;-80
2023/12/16 06:06:27;;;;;;;0.98;0.88;;;;;;;;;;5007004;28;20050;-80
2023/12/16 06:08:55;;;;;;;0.57;0.50;;;;;;;;;;4986510;28;20140;-80
2023/12/16 06:11:23;;;;;;;0.20;0.20;;;;;;;;;;4983992;28;20123;-80
2023/12/16 06:13:50;;;;;;;0.55;0.52;;;;;;;;;;4985356;28;20049;-81
2023/12/16 06:16:18;;;;;;;2.75;1.40;;;;;;;;;;5004942;28;20053;-80
2023/12/16 06:18:47;;;;;;;0.10;0.10;;;;;;;;;;4996863;28;20049;-80
2023/12/16 06:21:15;;;;;;;0.73;0.73;;;;;;;;;;5004823;28;20053;-81
2023/12/16 06:23:43;;;;;;;2.83;2.20;;;;;;;;;;5002649;28;20239;-80
2023/12/16 06:26:10;;;;;;;0.70;0.70;;;;;;;;;;4986958;28;20056;-80
2023/12/16 06:28:38;;;;;;;0.77;0.77;;;;;;;;;;4991609;28;20074;-80
2023/12/16 06:31:06;;;;;;;0.68;0.68;;;;;;;;;;4985599;28;20035;-80
2023/12/16 06:33:33;;;;;;;1.23;1.15;;;;;;;;;;4982553;28;20049;-80
2023/12/16 06:36:04;;;;;;;0.85;0.73;;;;;;;;;;4987020;28;20049;-80
2023/12/16 06:38:31;;;;;;;0.52;0.52;;;;;;;;;;4996848;28;20054;-80
2023/12/16 06:40:59;;;;;;;2.80;1.38;;;;;;;;;;5006763;28;20490;-80
2023/12/16 06:43:26;;;;;;;0.95;0.75;;;;;;;;;;5006358;28;20049;-80
2023/12/16 06:45:54;;;;;;;0.40;0.40;;;;;;;;;;4983721;28;20500;-81
2023/12/16 06:48:25;;;;;;;3.80;2.23;;;;;;;;;;5001140;28;20046;-81
2023/12/16 06:50:57;;;;;;;7.75;2.67;;;;;;;;;;4998352;28;20683;-81
2023/12/16 06:53:30;;;;;;;3.40;2.00;;;;;;;;;;4989173;28;20505;-81
2023/12/16 06:55:58;;;;;;;1.95;1.58;;;;;;;;;;5007362;28;20045;-81
2023/12/16 06:58:25;;;;;;;0.20;0.20;;;;;;;;;;4992759;28;20077;-80
2023/12/16 07:00:53;;;;;;;2.85;1.27;;;;;;;;;;4984573;28;20041;-81
2023/12/16 07:03:20;;;;;;;0.43;0.43;;;;;;;;;;5006555;28;20089;-80
2023/12/16 07:05:48;;;;;;;1.10;1.00;;;;;;;;;;4969882;28;20144;-81
2023/12/16 07:08:16;;;;;;;2.13;1.35;;;;;;;;;;5008718;28;20042;-81
2023/12/16 07:10:43;;;;;;;2.45;1.85;;;;;;;;;;5003706;28;20060;-81
2023/12/16 07:13:10;;;;;;;0.10;0.10;;;;;;;;;;5005735;28;20038;-81
2023/12/16 07:15:39;;;;;;;10.27;4.95;;;;;;;;;;5004699;28;20069;-81
2023/12/16 07:18:06;;;;;;;0.22;0.22;;;;;;;;;;5007165;28;20076;-81
2023/12/16 07:20:37;;;;;;;4.35;1.70;;;;;;;;;;4979719;28;20057;-81
2023/12/16 07:23:04;;;;;;;1.27;1.20;;;;;;;;;;5007270;28;20053;-80
2023/12/16 07:25:32;;;;;;;5.05;2.97;;;;;;;;;;4980890;28;20475;-81
2023/12/16 07:27:59;;;;;;;0.57;0.57;;;;;;;;;;4986336;28;20468;-80
2023/12/16 07:30:27;;;;;;;1.20;1.10;;;;;;;;;;5002125;28;20419;-80
2023/12/16 07:32:54;;;;;;;0.93;0.93;;;;;;;;;;4996196;28;20133;-81
2023/12/16 07:35:22;;;;;;;0.47;0.47;;;;;;;;;;5001713;28;20333;-81
2023/12/16 07:37:55;;;;;;;3.28;2.63;;;;;;;;;;5005984;28;20030;-81
2023/12/16 07:40:27;;;;;;;6.18;3.45;;;;;;;;;;4974044;28;20050;-81
2023/12/16 07:42:54;;;;;;;2.65;2.42;;;;;;;;;;5001606;28;20050;-81
2023/12/16 07:45:36;;;;;;;3.53;3.22;;;;;;;;;;5006581;28;20084;-81
2023/12/16 07:48:09;;;;;;;5.63;0.77;;;;;;;;;;5005187;28;20412;-81
2023/12/16 07:50:38;;;;;;;5.93;2.75;;;;;;;;;;5004307;28;20050;-80
2023/12/16 07:53:09;;;;;;;2.15;1.45;;;;;;;;;;4986006;28;20532;-81
2023/12/16 07:55:36;;;;;;;1.55;1.17;;;;;;;;;;4986954;28;20050;-81
2023/12/16 07:58:04;;;;;;;1.10;1.08;;;;;;;;;;5006199;28;20062;-81
2023/12/16 08:00:34;;;;;;;1.83;1.67;;;;;;;;;;5002437;28;20077;-81
2023/12/16 08:03:01;;;;;;;1.05;1.00;;;;;;;;;;5005748;28;20279;-80
2023/12/16 08:05:29;;;;;;;10.43;3.47;;;;;;;;;;5004808;28;20103;-81
2023/12/16 08:07:56;;;;;;;0.80;0.70;;;;;;;;;;5000749;28;20666;-81
2023/12/16 08:10:24;;;;;;;2.90;1.38;;;;;;;;;;5004262;28;20145;-81
2023/12/16 08:12:51;;;;;;;1.10;0.73;;;;;;;;;;5000168;28;20554;-81
2023/12/16 08:15:19;;;;;;;3.75;2.97;;;;;;;;;;5005664;28;20041;-82
2023/12/16 08:17:47;;;;;;;1.05;1.05;;;;;;;;;;5002426;28;20069;-81
2023/12/16 08:20:15;;;;;;;0.63;0.63;;;;;;;;;;5002061;28;20077;-81
2023/12/16 08:22:42;;;;;;;5.25;4.50;;;;;;;;;;5002379;28;20045;-80
2023/12/16 08:25:13;;;;;;;1.38;1.15;;;;;;;;;;5003068;28;20054;-80
2023/12/16 08:27:41;;;;;;;1.33;1.33;;;;;;;;;;5001196;28;20136;-81
2023/12/16 08:30:09;;;;;;;1.80;1.67;;;;;;;;;;5002404;28;20547;-81
2023/12/16 08:32:36;;;;;;;6.35;2.92;;;;;;;;;;4999112;28;20502;-81
2023/12/16 08:35:04;;;;;;;3.42;3.22;;;;;;;;;;5003551;28;20045;-81
2023/12/16 08:37:32;;;;;;;0.43;0.43;;;;;;;;;;5005406;28;20050;-81
2023/12/16 08:40:05;;;;;;;2.88;1.60;;;;;;;;;;5004593;28;20377;-81
2023/12/16 08:42:33;;;;;;;1.75;0.80;;;;;;;;;;5006593;28;20050;-80
2023/12/16 08:45:00;;;;;;;1.75;1.65;;;;;;;;;;5005470;28;20041;-80
2023/12/16 08:47:28;;;;;;;0.82;0.82;;;;;;;;;;5006519;28;20050;-80
2023/12/16 08:49:56;;;;;;;6.88;4.50;;;;;;;;;;4972547;28;20046;-80
2023/12/16 08:52:23;;;;;;;2.17;0.98;;;;;;;;;;5007335;28;20033;-81
2023/12/16 08:54:58;;;;;;;1.25;1.15;;;;;;;;;;4974772;28;20518;-81
2023/12/16 08:57:30;;;;;;;1.10;1.10;;;;;;;;;;4983300;28;20526;-80
2023/12/16 08:59:58;;;;;;;1.55;1.10;;;;;;;;;;5000940;28;20046;-80
2023/12/16 09:02:25;;;;;;;0.95;0.93;;;;;;;;;;4975072;28;20697;-81
2023/12/16 09:04:53;;;;;;;0.55;0.55;;;;;;;;;;5002873;28;20038;-81
2023/12/16 09:07:20;;;;;;;5.65;2.67;;;;;;;;;;5002683;28;20127;-80
2023/12/16 09:09:48;;;;;;;0.95;0.90;;;;;;;;;;4990945;28;20039;-81
2023/12/16 09:12:15;;;;;;;2.40;1.63;;;;;;;;;;4988823;28;20513;-80
2023/12/16 09:14:43;;;;;;;1.85;1.75;;;;;;;;;;5002144;28;20413;-81
2023/12/16 09:17:10;;;;;;;1.52;1.40;;;;;;;;;;4987501;28;20136;-80
2023/12/16 09:19:38;;;;;;;1.80;1.65;;;;;;;;;;5003243;28;20108;-81
2023/12/16 09:22:09;;;;;;;1.20;0.68;;;;;;;;;;4985191;28;20042;-81
2023/12/16 09:24:36;;;;;;;1.63;1.52;;;;;;;;;;4987276;28;20050;-81
2023/12/16 09:27:05;;;;;;;1.45;1.35;;;;;;;;;;5006047;28;20104;-81
2023/12/16 09:29:33;;;;;;;0.63;0.63;;;;;;;;;;4979686;28;20081;-81
2023/12/16 09:32:02;;;;;;;2.80;1.50;;;;;;;;;;5009397;28;20050;-81
2023/12/16 09:34:34;;;;;;;2.72;2.30;;;;;;;;;;5006690;28;20045;-81
2023/12/16 09:37:03;;;;;;;0.10;0.10;;;;;;;;;;5004301;28;20049;-81
2023/12/16 09:39:33;;;;;;;2.72;2.33;;;;;;;;;;5004268;28;20053;-80
2023/12/16 09:42:14;;;;;;;1.25;0.63;;;;;;;;;;4993499;28;20046;-81
2023/12/16 09:44:49;;;;;;;5.65;5.15;;;;;;;;;;4994526;28;20107;-82
2023/12/16 09:47:16;;;;;;;2.40;2.00;;;;;;;;;;4971076;28;20050;-81
2023/12/16 09:49:45;;;;;;;2.03;1.90;;;;;;;;;;5002967;28;20129;-81
2023/12/16 09:52:13;;;;;;;4.07;2.33;;;;;;;;;;4988376;28;20054;-81
2023/12/16 09:54:40;;;;;;;2.58;2.20;;;;;;;;;;5006437;28;20446;-81
2023/12/16 09:57:11;;;;;;;6.20;4.07;;;;;;;;;;5009665;28;20488;-81
2023/12/16 09:59:39;;;;;;;2.70;2.45;;;;;;;;;;5003656;28;20058;-81
2023/12/16 10:02:09;;;;;;;2.58;2.10;;;;;;;;;;5007152;28;20385;-81
2023/12/16 10:04:41;;;;;;;21.65;3.17;;;;;;;;;;4989636;28;20111;-81
2023/12/16 10:07:16;;;;;;;0.40;0.40;;;;;;;;;;4994363;28;20042;-80
2023/12/16 10:09:44;;;;;;;1.92;1.63;;;;;;;;;;5012637;28;20046;-81
2023/12/16 10:12:13;;;;;;;2.15;1.75;;;;;;;;;;5004813;28;20526;-81
2023/12/16 10:14:47;;;;;;;4.13;2.70;;;;;;;;;;5009866;28;20050;-81
2023/12/16 10:17:18;;;;;;;3.33;3.03;;;;;;;;;;5012844;28;20084;-80
2023/12/16 10:19:46;;;;;;;6.10;4.05;;;;;;;;;;5011084;28;20064;-80
2023/12/16 10:22:17;;;;;;;0.63;0.63;;;;;;;;;;4995280;28;20052;-80
2023/12/16 10:24:45;;;;;;;1.38;1.33;;;;;;;;;;5005344;28;20050;-80
2023/12/16 10:27:13;;;;;;;2.22;2.13;;;;;;;;;;4989550;28;20171;-80
2023/12/16 10:29:41;;;;;;;5.00;2.75;;;;;;;;;;4986601;28;20472;-81
2023/12/16 10:32:29;;;;;;;4.72;3.17;;;;;;;;;;5001922;28;20045;-81
2023/12/16 10:35:23;;;;;;;3.08;1.20;;;;;;;;;;5007465;28;20049;-80
2023/12/16 10:37:51;;;;;;;0.40;0.40;;;;;;;;;;4982309;28;20500;-81
2023/12/16 10:41:12;;;;;;;1.33;1.23;;;;;;;;;;4989948;28;20050;-80
2023/12/16 10:44:28;;;;;;;0.68;0.68;;;;;;;;;;4987978;28;20459;-80
2023/12/16 10:46:55;;;;;;;5.10;1.23;;;;;;;;;;4987125;28;20069;-80
2023/12/16 10:49:38;;;;;;;2.40;2.30;;;;;;;;;;5001106;28;20056;-81
2023/12/16 10:52:19;;;;;;;0.90;0.52;;;;;;;;;;5001507;28;20460;-80
2023/12/16 10:55:03;;;;;;;0.43;0.43;;;;;;;;;;5001186;28;20121;-81
2023/12/16 10:57:34;;;;;;;0.43;0.43;;;;;;;;;;5001859;28;20058;-81
2023/12/16 11:00:09;;;;;;;2.20;1.45;;;;;;;;;;5003654;28;20530;-81
2023/12/16 11:02:56;;;;;;;1.05;0.80;;;;;;;;;;5000411;28;20514;-80
2023/12/16 11:05:34;;;;;;;1.08;1.08;;;;;;;;;;5003215;28;20475;-81
2023/12/16 11:08:03;;;;;;;2.60;1.15;;;;;;;;;;5004592;28;20076;-81
2023/12/16 11:10:31;;;;;;;0.93;0.38;;;;;;;;;;4998303;28;20045;-81
2023/12/16 11:13:05;;;;;;;1.48;1.42;;;;;;;;;;5003395;28;20053;-80
2023/12/16 11:15:38;;;;;;;0.10;0.10;;;;;;;;;;4967001;28;20041;-82
2023/12/16 11:18:16;;;;;;;0.28;0.28;;;;;;;;;;4999654;28;20174;-81
2023/12/16 11:20:45;;;;;;;0.43;0.43;;;;;;;;;;5000859;28;20050;-81
2023/12/16 11:23:17;;;;;;;0.73;0.73;;;;;;;;;;4990361;28;20239;-81
2023/12/16 11:25:44;;;;;;;;;;;;;;;;;;5000913;28;20038;-81
2023/12/16 11:28:14;;;;;;;0.32;0.32;;;;;;;;;;4986973;28;19925;-80
2023/12/16 11:30:44;;;;;;;;;;;;;;;;;;4988726;28;20046;-82
2023/12/16 11:33:11;;;;;;;2.63;1.85;;;;;;;;;;5004261;28;20346;-82
2023/12/16 11:35:50;;;;;;;0.90;0.90;;;;;;;;;;5002833;28;20058;-82
2023/12/16 11:38:42;;;;;;;1.33;1.23;;;;;;;;;;4982147;28;20061;-82
2023/12/16 11:41:30;;;;;;;0.17;0.17;;;;;;;;;;5005401;28;20057;-80
2023/12/16 11:43:57;;;;;;;0.90;0.90;;;;;;;;;;4993393;28;20073;-80
2023/12/16 11:46:37;;;;;;;1.77;1.30;;;;;;;;;;5005673;28;20347;-80
2023/12/16 11:49:07;;;;;;;1.00;1.00;;;;;;;;;;5004223;28;20046;-80
2023/12/16 11:51:36;;;;;;;1.65;1.23;;;;;;;;;;5006632;28;20203;-80
2023/12/16 11:54:07;;;;;;;0.52;0.52;;;;;;;;;;4998475;28;20050;-80
2023/12/16 11:56:35;;;;;;;0.65;0.63;;;;;;;;;;5003499;28;20054;-81
2023/12/16 11:59:22;;;;;;;1.48;1.38;;;;;;;;;;5065237;28;20637;-76
2023/12/16 12:01:49;;;;;;;0.28;0.28;;;;;;;;;;5048719;28;20132;-76
2023/12/16 12:04:18;;;;;;;8.52;4.70;;;;;;;;;;5040028;28;20107;-76
2023/12/16 12:06:46;;;;;;;0.28;0.28;;;;;;;;;;5042952;28;20537;-76
2023/12/16 12:09:13;;;;;;;8.43;6.95;;;;;;;;;;5045477;28;20399;-76
2023/12/16 12:11:41;;;;;;;1.27;1.13;;;;;;;;;;5041196;28;20056;-76
2023/12/16 12:14:08;;;;;;;1.23;1.17;;;;;;;;;;5054936;28;20491;-77
2023/12/16 12:16:36;;;;;;;5.95;4.00;;;;;;;;;;5048143;28;20056;-77
2023/12/16 12:19:04;;;;;;;0.17;0.17;;;;;;;;;;5043515;28;20306;-77
2023/12/16 12:21:35;;;;;;;4.38;2.40;;;;;;;;;;5041254;28;20411;-77
2023/12/16 12:24:03;;;;;;;0.65;0.65;;;;;;;;;;5049275;28;20045;-76
2023/12/16 12:26:30;;;;;;;0.82;0.82;;;;;;;;;;5044467;28;20384;-76
2023/12/16 12:28:58;;;;;;;0.22;0.22;;;;;;;;;;5044435;28;20098;-77
2023/12/16 12:31:29;;;;;;;0.88;0.85;;;;;;;;;;5041853;28;20063;-76
2023/12/16 12:33:57;;;;;;;0.40;0.40;;;;;;;;;;5043696;28;20554;-77
2023/12/16 12:36:25;;;;;;;0.30;0.30;;;;;;;;;;5051843;28;20049;-77
2023/12/16 12:38:56;;;;;;;1.45;1.35;;;;;;;;;;5043217;28;20049;-77
2023/12/16 12:41:24;;;;;;;0.52;0.47;;;;;;;;;;5042748;28;20056;-77
2023/12/16 12:43:52;;;;;;;0.55;0.43;;;;;;;;;;5042687;28;20049;-76
2023/12/16 12:46:20;;;;;;;1.60;1.50;;;;;;;;;;5047375;28;20414;-77
2023/12/16 12:48:55;;;;;;;1.70;0.65;;;;;;;;;;5047958;28;20579;-76
2023/12/16 12:51:25;;;;;;;0.30;0.30;;;;;;;;;;5037892;28;20641;-76
2023/12/16 12:53:57;;;;;;;0.20;0.20;;;;;;;;;;5042357;28;20045;-76
2023/12/16 12:56:28;;;;;;;0.60;0.30;;;;;;;;;;5039607;28;20103;-76
2023/12/16 12:58:57;;;;;;;0.57;0.57;;;;;;;;;;5046045;28;20082;-76
2023/12/16 13:01:24;;;;;;;0.40;0.40;;;;;;;;;;5042556;28;20103;-76
2023/12/16 13:03:54;;;;;;;0.10;0.10;;;;;;;;;;5041736;28;20037;-77
2023/12/16 13:06:21;;;;;;;0.17;0.17;;;;;;;;;;5042483;28;20487;-77
2023/12/16 13:08:51;;;;;;;1.75;1.65;;;;;;;;;;5048000;28;20052;-77
2023/12/16 13:11:19;;;;;;;1.15;1.13;;;;;;;;;;5045063;28;20091;-76
2023/12/16 13:13:50;;;;;;;9.68;6.35;;;;;;;;;;5039624;28;20136;-77
2023/12/16 13:16:17;;;;;;;1.92;1.70;;;;;;;;;;5024838;28;20415;-75
2023/12/16 13:18:51;;;;;;;0.30;0.30;;;;;;;;;;5026922;28;20064;-76
2023/12/16 13:21:20;;;;;;;2.92;1.90;;;;;;;;;;5013672;28;20041;-77
2023/12/16 13:23:48;;;;;;;3.30;2.22;;;;;;;;;;5030831;28;20059;-77
2023/12/16 13:26:16;;;;;;;1.08;0.85;;;;;;;;;;5029520;28;20056;-75
2023/12/16 13:28:43;;;;;;;0.40;0.40;;;;;;;;;;5029045;28;20148;-75
2023/12/16 13:31:11;;;;;;;0.63;0.63;;;;;;;;;;5029652;28;20050;-76
2023/12/16 13:33:40;;;;;;;0.70;0.70;;;;;;;;;;5026855;28;20058;-76
2023/12/16 13:36:09;;;;;;;4.05;1.02;;;;;;;;;;5017623;28;20079;-77
2023/12/16 13:38:57;;;;;;;2.90;1.77;;;;;;;;;;5014830;28;20033;-76
2023/12/16 13:41:24;;;;;;;0.65;0.65;;;;;;;;;;5029092;28;20044;-76
2023/12/16 13:43:55;;;;;;;0.20;0.20;;;;;;;;;;5021457;28;20041;-76
2023/12/16 13:46:22;;;;;;;0.80;0.80;;;;;;;;;;5013655;28;20049;-77
2023/12/16 13:48:50;;;;;;;0.20;0.20;;;;;;;;;;5011497;28;20142;-76
2023/12/16 13:51:18;;;;;;;0.50;0.50;;;;;;;;;;5022169;28;20329;-76
2023/12/16 13:53:45;;;;;;;0.55;0.55;;;;;;;;;;5022738;28;20052;-77
2023/12/16 13:56:13;;;;;;;0.52;0.52;;;;;;;;;;5021931;28;20053;-76
2023/12/16 13:58:40;;;;;;;5.05;1.45;;;;;;;;;;5025268;28;20038;-77
2023/12/16 14:01:08;;;;;;;0.75;0.75;;;;;;;;;;5082018;22;20104;-81
2023/12/16 14:03:41;;;;;;;0.30;0.30;;;;;;;;;;5041799;28;20045;-79
2023/12/16 14:06:14;;;;;;;0.63;0.63;;;;;;;;;;5059264;28;20106;-82
2023/12/16 14:08:42;;;;;;;0.63;0.63;;;;;;;;;;5040243;28;20510;-82
2023/12/16 14:11:09;;;;;;;0.73;0.73;;;;;;;;;;5053181;28;20048;-81
2023/12/16 14:13:37;;;;;;;0.15;0.15;;;;;;;;;;5059377;28;20045;-82
2023/12/16 14:16:05;;;;;;;0.40;0.40;;;;;;;;;;5049018;28;20634;-82
2023/12/16 14:18:32;;;;;;;0.40;0.40;;;;;;;;;;5040963;28;20041;-83
2023/12/16 14:21:00;;;;;;;0.10;0.10;;;;;;;;;;5037909;28;20047;-83
2023/12/16 14:23:27;;;;;;;1.85;1.83;;;;;;;;;;5054290;28;20050;-83
2023/12/16 14:25:55;;;;;;;0.95;0.95;;;;;;;;;;5033340;28;20042;-82
2023/12/16 14:28:22;;;;;;;2.53;1.77;;;;;;;;;;5061349;28;20105;-82
2023/12/16 14:30:49;;;;;;;0.10;0.10;;;;;;;;;;5050804;28;20510;-81
2023/12/16 14:33:20;;;;;;;1.08;0.98;;;;;;;;;;5059735;28;20053;-81
2023/12/16 14:35:47;;;;;;;5.28;2.08;;;;;;;;;;5052751;28;20049;-82
2023/12/16 14:38:20;;;;;;;1.67;1.65;;;;;;;;;;5040170;28;20042;-80
2023/12/16 14:40:48;;;;;;;1.75;1.58;;;;;;;;;;5046033;28;20943;-82
2023/12/16 14:43:16;;;;;;;1.30;1.23;;;;;;;;;;5030135;28;20044;-82
2023/12/16 14:45:43;;;;;;;1.98;1.88;;;;;;;;;;5063534;28;20048;-81
2023/12/16 14:48:10;;;;;;;1.88;0.80;;;;;;;;;;5046743;28;20053;-81
2023/12/16 14:50:38;;;;;;;1.02;1.00;;;;;;;;;;5053517;28;20083;-82
2023/12/16 14:53:07;;;;;;;2.00;1.90;;;;;;;;;;5012569;28;20075;-81
2023/12/16 14:55:38;;;;;;;3.85;3.13;;;;;;;;;;5013006;28;20057;-82